createdAt,value
2018-03-11T00:02:16.625Z,16.50
2018-03-11T00:04:44.890Z,16.40
2018-03-11T00:07:13.174Z,14.83
2018-03-11T00:09:40.688Z,15.40
2018-03-11T00:12:08.974Z,16.43
2018-03-11T00:14:36.489Z,16.90
2018-03-11T00:17:03.997Z,16.47
2018-03-11T00:19:31.489Z,16.37
2018-03-11T00:21:58.986Z,17.80
2018-03-11T00:24:26.486Z,16.30
2018-03-11T00:26:54.742Z,17.07
2018-03-11T00:29:22.251Z,15.77
2018-03-11T00:31:49.751Z,16.00
2018-03-11T00:34:17.268Z,16.53
2018-03-11T00:36:44.758Z,15.70
2018-03-11T00:39:12.254Z,15.17
2018-03-11T00:41:40.511Z,15.90
2018-03-11T00:44:08.035Z,15.37
2018-03-11T00:46:35.548Z,17.83
2018-03-11T00:49:03.798Z,15.30
2018-03-11T00:51:31.311Z,16.47
2018-03-11T00:53:58.819Z,16.60
2018-03-11T00:56:26.345Z,16.60
2018-03-11T00:58:53.882Z,16.53
2018-03-11T01:01:21.392Z,18.10
2018-03-11T01:03:48.887Z,16.93
2018-03-11T01:06:16.395Z,15.47
2018-03-11T01:08:43.895Z,17.17
2018-03-11T01:11:12.165Z,14.87
2018-03-11T01:13:40.414Z,15.63
2018-03-11T01:16:07.954Z,15.43
2018-03-11T01:18:35.441Z,13.83
2018-03-11T01:21:02.961Z,15.73
2018-03-11T01:23:31.250Z,13.53
2018-03-11T01:25:58.784Z,14.90
2018-03-11T01:28:26.276Z,14.07
2018-03-11T01:30:53.787Z,13.77
2018-03-11T01:33:21.275Z,14.87
2018-03-11T01:35:48.787Z,14.50
2018-03-11T01:38:16.290Z,15.73
2018-03-11T01:40:43.811Z,16.00
2018-03-11T01:43:11.293Z,14.97
2018-03-11T01:45:39.515Z,16.13
2018-03-11T01:48:07.786Z,16.40
2018-03-11T01:50:35.298Z,16.93
2018-03-11T01:53:08.694Z,17.33
2018-03-11T01:55:36.207Z,17.10
2018-03-11T01:58:04.457Z,18.80
2018-03-11T02:00:31.938Z,19.73
2018-03-11T02:03:00.227Z,18.40
2018-03-11T02:05:27.736Z,19.83
2018-03-11T02:07:55.259Z,21.87
2018-03-11T02:10:22.760Z,21.63
2018-03-11T02:12:50.278Z,22.20
2018-03-11T02:15:17.765Z,22.03
2018-03-11T02:17:45.275Z,20.93
2018-03-11T02:20:12.761Z,21.87
2018-03-11T02:22:40.270Z,24.80
2018-03-11T02:25:08.519Z,25.27
2018-03-11T02:27:36.013Z,24.27
2018-03-11T02:30:04.294Z,22.83
2018-03-11T02:32:32.569Z,22.13
2018-03-11T02:35:00.822Z,21.77
2018-03-11T02:37:28.334Z,22.43
2018-03-11T02:39:55.813Z,21.67
2018-03-11T02:42:24.100Z,23.17
2018-03-11T02:44:51.611Z,25.20
2018-03-11T02:47:19.133Z,25.30
2018-03-11T02:49:46.619Z,26.13
2018-03-11T02:52:14.166Z,25.60
2018-03-11T02:54:41.698Z,26.53
2018-03-11T02:57:09.230Z,26.27
2018-03-11T02:59:36.712Z,28.93
2018-03-11T03:02:04.246Z,27.27
2018-03-11T03:04:31.765Z,26.70
2018-03-11T03:06:59.266Z,27.07
2018-03-11T03:09:26.770Z,26.70
2018-03-11T03:11:54.258Z,28.87
2018-03-11T03:14:21.789Z,28.10
2018-03-11T03:16:50.078Z,27.30
2018-03-11T03:19:17.601Z,27.17
2018-03-11T03:21:45.098Z,27.17
2018-03-11T03:24:12.619Z,28.20
2018-03-11T03:26:40.110Z,27.40
2018-03-11T03:29:07.628Z,28.83
2018-03-11T03:31:35.129Z,28.80
2018-03-11T03:34:02.639Z,29.63
2018-03-11T03:36:30.132Z,30.63
2018-03-11T03:38:58.071Z,29.80
2018-03-11T03:41:25.565Z,28.60
2018-03-11T03:43:53.062Z,27.57
2018-03-11T03:46:20.554Z,29.00
2018-03-11T03:48:48.822Z,28.03
2018-03-11T03:51:16.320Z,28.80
2018-03-11T03:53:43.844Z,30.30
2018-03-11T03:56:11.342Z,29.50
2018-03-11T03:58:38.864Z,29.60
2018-03-11T04:01:07.145Z,28.87
2018-03-11T04:03:35.432Z,30.27
2018-03-11T04:06:02.914Z,27.00
2018-03-11T04:08:30.434Z,28.57
2018-03-11T04:10:57.915Z,27.87
2018-03-11T04:13:25.433Z,28.50
2018-03-11T04:15:52.937Z,30.50
2018-03-11T04:18:20.438Z,28.70
2018-03-11T04:20:47.950Z,28.47
2018-03-11T04:23:15.426Z,32.77
2018-03-11T04:25:42.930Z,30.07
2018-03-11T04:28:11.197Z,30.37
2018-03-11T04:30:38.737Z,33.53
2018-03-11T04:33:06.218Z,34.90
2018-03-11T04:35:34.510Z,30.67
2018-03-11T04:38:02.773Z,33.73
2018-03-11T04:40:31.056Z,31.60
2018-03-11T04:42:59.310Z,31.77
2018-03-11T04:45:27.099Z,31.60
2018-03-11T04:47:55.346Z,30.77
2018-03-11T04:50:22.883Z,33.37
2018-03-11T04:52:50.407Z,31.07
2018-03-11T04:55:17.930Z,32.17
2018-03-11T04:57:45.431Z,32.93
2018-03-11T05:00:12.954Z,31.07
2018-03-11T05:02:40.435Z,34.23
2018-03-11T05:05:07.946Z,33.87
2018-03-11T05:07:35.458Z,34.03
2018-03-11T05:10:02.963Z,36.43
2018-03-11T05:12:31.988Z,37.63
2018-03-11T05:15:00.260Z,34.87
2018-03-11T05:17:28.514Z,33.20
2018-03-11T05:19:56.019Z,35.17
2018-03-11T05:22:23.512Z,31.00
2018-03-11T05:24:51.046Z,30.90
2018-03-11T05:27:18.552Z,31.60
2018-03-11T05:29:46.082Z,31.53
2018-03-11T05:32:13.562Z,31.17
2018-03-11T05:34:41.062Z,35.87
2018-03-11T05:37:08.586Z,35.63
2018-03-11T05:39:36.082Z,34.93
2018-03-11T05:42:03.602Z,33.30
2018-03-11T05:44:31.144Z,38.87
2018-03-11T05:46:58.639Z,36.73
2018-03-11T05:49:26.898Z,35.73
2018-03-11T05:51:55.198Z,33.23
2018-03-11T05:54:22.722Z,34.47
2018-03-11T05:56:50.215Z,38.50
2018-03-11T05:59:17.728Z,39.33
2018-03-11T06:01:45.255Z,35.10
2018-03-11T06:04:12.757Z,33.17
2018-03-11T06:06:40.286Z,35.27
2018-03-11T06:09:07.806Z,37.27
2018-03-11T06:11:35.326Z,37.87
2018-03-11T06:14:02.815Z,40.80
2018-03-11T06:16:31.099Z,40.60
2018-03-11T06:18:58.591Z,36.90
2018-03-11T06:21:26.119Z,39.53
2018-03-11T06:23:53.634Z,43.23
2018-03-11T06:26:21.159Z,42.63
2018-03-11T06:28:48.643Z,35.20
2018-03-11T06:31:16.191Z,27.20
2018-03-11T06:33:43.690Z,35.43
2018-03-11T06:36:12.020Z,28.87
2018-03-11T06:38:39.525Z,25.30
2018-03-11T06:41:07.078Z,21.27
2018-03-11T06:43:35.359Z,19.20
2018-03-11T06:46:02.919Z,19.77
2018-03-11T06:48:31.186Z,19.77
2018-03-11T06:50:59.478Z,21.13
2018-03-11T06:53:27.025Z,20.47
2018-03-11T06:55:54.521Z,20.47
2018-03-11T06:58:22.057Z,20.00
2018-03-11T07:00:49.546Z,25.60
2018-03-11T07:03:17.078Z,37.70
2018-03-11T07:05:45.512Z,18.30
2018-03-11T07:08:13.042Z,19.30
2018-03-11T07:10:40.551Z,17.90
2018-03-11T07:13:08.838Z,18.50
2018-03-11T07:15:36.337Z,19.40
2018-03-11T07:18:03.856Z,20.10
2018-03-11T07:20:32.172Z,19.10
2018-03-11T07:22:59.648Z,19.73
2018-03-11T07:25:27.145Z,19.27
2018-03-11T07:27:55.428Z,19.07
2018-03-11T07:30:23.732Z,18.50
2018-03-11T07:32:51.207Z,18.10
2018-03-11T07:35:18.703Z,15.93
2018-03-11T07:37:46.250Z,15.53
2018-03-11T07:40:13.760Z,16.77
2018-03-11T07:42:42.190Z,15.13
2018-03-11T07:45:09.682Z,14.27
2018-03-11T07:47:37.194Z,15.00
2018-03-11T07:50:04.708Z,18.50
2018-03-11T07:52:32.211Z,13.97
2018-03-11T07:54:59.717Z,13.50
2018-03-11T07:57:27.265Z,15.13
2018-03-11T07:59:55.521Z,13.53
2018-03-11T08:02:23.034Z,12.77
2018-03-11T08:04:50.561Z,11.93
2018-03-11T08:07:18.834Z,11.83
2018-03-11T08:09:46.376Z,12.53
2018-03-11T08:12:13.927Z,17.67
2018-03-11T08:14:41.440Z,11.53
2018-03-11T08:17:08.933Z,11.43
2018-03-11T08:19:36.451Z,11.07
2018-03-11T08:22:04.706Z,10.53
2018-03-11T08:24:33.006Z,9.70
2018-03-11T08:27:01.280Z,9.93
2018-03-11T08:29:28.818Z,10.17
2018-03-11T08:31:57.114Z,9.67
2018-03-11T08:34:25.411Z,10.87
2018-03-11T08:36:52.939Z,10.70
2018-03-11T08:39:21.236Z,10.63
2018-03-11T08:41:48.758Z,10.80
2018-03-11T08:44:16.291Z,10.57
2018-03-11T08:46:43.799Z,10.50
2018-03-11T08:49:12.112Z,11.43
2018-03-11T08:51:39.612Z,10.10
2018-03-11T08:54:07.125Z,10.57
2018-03-11T08:56:34.622Z,10.07
2018-03-11T08:59:02.126Z,12.10
2018-03-11T09:01:30.382Z,9.63
2018-03-11T09:03:57.866Z,9.50
2018-03-11T09:06:26.155Z,8.70
2018-03-11T09:08:53.656Z,9.33
2018-03-11T09:11:21.171Z,9.37
2018-03-11T09:13:53.282Z,8.93
2018-03-11T09:16:20.794Z,8.77
2018-03-11T09:18:48.312Z,9.10
2018-03-11T09:21:15.842Z,8.47
2018-03-11T09:23:43.323Z,8.60
2018-03-11T09:26:10.826Z,7.60
2018-03-11T09:28:38.315Z,7.97
2018-03-11T09:31:05.831Z,7.93
2018-03-11T09:33:34.084Z,7.47
2018-03-11T09:36:01.598Z,7.57
2018-03-11T09:38:29.099Z,7.23
2018-03-11T09:40:56.766Z,6.70
2018-03-11T09:43:25.085Z,11.23
2018-03-11T09:45:52.686Z,6.70
2018-03-11T09:48:20.185Z,6.43
2018-03-11T09:50:51.546Z,6.87
2018-03-11T09:53:19.167Z,5.90
2018-03-11T09:55:46.687Z,6.07
2018-03-11T09:58:14.186Z,5.10
2018-03-11T10:00:41.699Z,5.80
2018-03-11T10:03:09.194Z,5.50
2018-03-11T10:05:37.614Z,4.70
2018-03-11T10:08:06.888Z,4.63
2018-03-11T10:10:34.557Z,4.87
2018-03-11T10:13:02.804Z,4.10
2018-03-11T10:15:32.443Z,3.87
2018-03-11T10:17:59.946Z,3.97
2018-03-11T10:20:27.455Z,3.97
2018-03-11T10:22:54.955Z,3.70
2018-03-11T10:25:22.441Z,3.87
2018-03-11T10:27:50.706Z,3.60
2018-03-11T10:30:18.186Z,2.93
2018-03-11T10:32:46.459Z,2.90
2018-03-11T10:35:14.721Z,2.53
2018-03-11T10:37:42.990Z,2.50
2018-03-11T10:40:10.490Z,2.90
2018-03-11T10:42:37.986Z,2.60
2018-03-11T10:45:05.573Z,2.33
2018-03-11T10:47:33.116Z,1.83
2018-03-11T10:50:00.610Z,1.90
2018-03-11T10:52:28.135Z,2.50
2018-03-11T10:54:55.671Z,1.93
2018-03-11T10:57:23.966Z,1.87
2018-03-11T10:59:51.446Z,1.80
2018-03-11T11:02:25.292Z,1.70
2018-03-11T11:04:58.502Z,1.77
2018-03-11T11:07:26.024Z,1.47
2018-03-11T11:09:53.506Z,1.53
2018-03-11T11:12:21.022Z,1.80
2018-03-11T11:14:49.293Z,1.37
2018-03-11T11:17:17.554Z,1.60
2018-03-11T11:19:45.051Z,1.83
2018-03-11T11:22:12.530Z,1.70
2018-03-11T11:24:40.036Z,1.50
2018-03-11T11:27:08.310Z,1.43
2018-03-11T11:29:35.805Z,1.90
2018-03-11T11:32:03.287Z,2.67
2018-03-11T11:34:30.841Z,1.97
2018-03-11T11:36:58.387Z,1.60
2018-03-11T11:39:25.899Z,2.03
2018-03-11T11:41:54.174Z,1.50
2018-03-11T11:44:22.429Z,1.50
2018-03-11T11:46:49.910Z,2.00
2018-03-11T11:49:18.195Z,1.47
2018-03-11T11:51:46.467Z,1.27
2018-03-11T11:54:14.758Z,2.00
2018-03-11T11:56:42.244Z,1.27
2018-03-11T11:59:09.741Z,2.23
2018-03-11T12:01:37.245Z,2.50
2018-03-11T12:04:04.773Z,3.77
2018-03-11T12:06:33.037Z,1.53
2018-03-11T12:09:01.291Z,1.73
2018-03-11T12:11:28.808Z,1.10
2018-03-11T12:13:56.303Z,1.87
2018-03-11T12:16:23.817Z,1.20
2018-03-11T12:18:51.331Z,1.50
2018-03-11T12:21:18.843Z,1.50
2018-03-11T12:23:46.350Z,1.43
2018-03-11T12:26:13.871Z,1.70
2018-03-11T12:28:41.383Z,1.20
2018-03-11T12:31:08.917Z,1.47
2018-03-11T12:33:36.426Z,1.43
2018-03-11T12:36:03.939Z,1.73
2018-03-11T12:38:31.450Z,1.50
2018-03-11T12:40:58.995Z,1.43
2018-03-11T12:43:26.477Z,1.27
2018-03-11T12:45:53.978Z,1.10
2018-03-11T12:48:21.478Z,1.80
2018-03-11T12:50:48.990Z,1.43
2018-03-11T12:53:16.534Z,1.17
2018-03-11T12:55:44.858Z,1.27
2018-03-11T12:58:12.362Z,1.57
2018-03-11T13:00:39.902Z,1.60
2018-03-11T13:03:07.810Z,1.57
2018-03-11T13:05:35.305Z,1.60
2018-03-11T13:08:02.818Z,1.40
2018-03-11T13:10:30.325Z,1.90
2018-03-11T13:12:57.818Z,1.33
2018-03-11T13:15:25.310Z,1.83
2018-03-11T13:17:53.590Z,1.33
2018-03-11T13:20:33.664Z,1.17
2018-03-11T13:23:01.166Z,1.47
2018-03-11T13:25:28.661Z,1.47
2018-03-11T13:28:08.740Z,1.70
2018-03-11T13:30:36.233Z,1.50
2018-03-11T13:33:15.728Z,1.40
2018-03-11T13:35:43.222Z,1.30
2018-03-11T13:38:22.678Z,1.60
2018-03-11T13:40:50.158Z,3.70
2018-03-11T13:43:18.431Z,1.30
2018-03-11T13:45:58.651Z,1.30
2018-03-11T13:48:26.176Z,1.43
2018-03-11T13:50:53.697Z,1.30
2018-03-11T13:53:33.838Z,1.00
2018-03-11T13:56:01.330Z,1.23
2018-03-11T13:58:40.799Z,1.20
2018-03-11T14:01:08.285Z,1.23
2018-03-11T14:03:35.779Z,1.20
2018-03-11T14:06:03.292Z,1.00
2018-03-11T14:08:30.790Z,3.23
2018-03-11T14:10:59.058Z,1.40
2018-03-11T14:13:26.555Z,1.07
2018-03-11T14:15:54.051Z,1.00
2018-03-11T14:18:21.567Z,1.37
2018-03-11T14:20:49.082Z,1.20
2018-03-11T14:23:17.328Z,1.43
2018-03-11T14:25:44.862Z,2.00
2018-03-11T14:28:12.350Z,1.77
2018-03-11T14:30:39.842Z,2.70
2018-03-11T14:33:07.350Z,2.20
2018-03-11T14:35:34.858Z,1.23
2018-03-11T14:38:03.119Z,1.50
2018-03-11T14:40:30.645Z,1.83
2018-03-11T14:42:58.130Z,2.10
2018-03-11T14:45:25.656Z,2.37
2018-03-11T14:47:53.947Z,3.70
2018-03-11T14:50:21.470Z,3.30
2018-03-11T14:52:48.962Z,9.93
2018-03-11T14:55:16.461Z,14.03
2018-03-11T14:57:44.201Z,2.13
2018-03-11T15:00:12.461Z,6.73
2018-03-11T15:02:39.971Z,33.30
2018-03-11T15:05:07.469Z,1.87
2018-03-11T15:07:34.978Z,1.63
2018-03-11T15:10:02.473Z,2.23
2018-03-11T15:12:29.979Z,2.77
2018-03-11T15:14:58.266Z,2.03
2018-03-11T15:17:25.778Z,2.53
2018-03-11T15:19:53.306Z,3.20
2018-03-11T15:22:20.834Z,3.53
2018-03-11T15:24:49.086Z,1.43
2018-03-11T15:27:17.375Z,1.10
2018-03-11T15:29:45.666Z,1.13
2018-03-11T15:32:13.210Z,1.60
2018-03-11T15:34:40.655Z,2.13
2018-03-11T15:37:08.155Z,1.77
2018-03-11T15:39:35.646Z,1.77
2018-03-11T15:42:03.161Z,3.00
2018-03-11T15:44:30.658Z,4.70
2018-03-11T15:46:58.135Z,1.90
2018-03-11T15:49:25.642Z,2.93
2018-03-11T15:51:53.164Z,2.00
2018-03-11T15:54:21.456Z,2.10
2018-03-11T15:56:49.708Z,2.40
2018-03-11T15:59:17.227Z,2.27
2018-03-11T16:01:44.725Z,2.60
2018-03-11T16:04:12.220Z,2.80
2018-03-11T16:06:39.704Z,2.87
2018-03-11T16:09:07.197Z,3.20
2018-03-11T16:11:35.447Z,3.10
2018-03-11T16:14:02.971Z,3.20
2018-03-11T16:16:30.462Z,3.00
2018-03-11T16:18:57.960Z,2.63
2018-03-11T16:21:26.222Z,3.10
2018-03-11T16:23:53.746Z,3.30
2018-03-11T16:26:21.220Z,3.00
2018-03-11T16:28:48.714Z,3.37
2018-03-11T16:31:16.195Z,2.87
2018-03-11T16:33:43.692Z,3.60
2018-03-11T16:36:11.204Z,4.07
2018-03-11T16:38:38.727Z,4.67
2018-03-11T16:41:06.214Z,4.40
2018-03-11T16:43:33.716Z,4.50
2018-03-11T16:46:01.233Z,4.50
2018-03-11T16:48:28.719Z,5.80
2018-03-11T16:50:56.226Z,4.23
2018-03-11T16:53:24.482Z,4.00
2018-03-11T16:55:51.990Z,4.00
2018-03-11T16:58:19.474Z,5.77
2018-03-11T17:00:46.994Z,8.43
2018-03-11T17:03:15.287Z,7.17
2018-03-11T17:05:42.811Z,7.37
2018-03-11T17:08:11.080Z,5.73
2018-03-11T17:10:39.330Z,5.00
2018-03-11T17:13:06.856Z,4.77
2018-03-11T17:15:34.354Z,4.90
2018-03-11T17:18:01.874Z,5.33
2018-03-11T17:20:29.374Z,4.60
2018-03-11T17:22:56.890Z,4.23
2018-03-11T17:25:24.370Z,3.70
2018-03-11T17:27:51.896Z,4.57
2018-03-11T17:30:19.374Z,3.67
2018-03-11T17:32:46.886Z,4.20
2018-03-11T17:35:15.138Z,3.47
2018-03-11T17:37:42.629Z,3.40
2018-03-11T17:40:10.159Z,3.10
2018-03-11T17:42:37.665Z,4.40
2018-03-11T17:45:05.186Z,5.43
2018-03-11T17:47:33.481Z,5.57
2018-03-11T17:50:01.079Z,6.17
2018-03-11T17:52:28.899Z,6.30
2018-03-11T17:54:56.517Z,7.17
2018-03-11T17:57:24.024Z,8.00
2018-03-11T17:59:51.529Z,12.40
2018-03-11T18:02:20.541Z,18.77
2018-03-11T18:04:48.833Z,17.80
2018-03-11T18:07:16.333Z,17.10
2018-03-11T18:09:43.855Z,9.97
2018-03-11T18:12:11.358Z,10.53
2018-03-11T18:14:38.856Z,7.90
2018-03-11T18:17:07.107Z,16.10
2018-03-11T18:19:34.622Z,9.00
2018-03-11T18:22:02.106Z,9.80
2018-03-11T18:24:29.598Z,6.57
2018-03-11T18:26:57.842Z,5.17
2018-03-11T18:29:26.127Z,5.57
2018-03-11T18:31:53.627Z,8.57
2018-03-11T18:34:21.877Z,6.00
2018-03-11T18:36:49.379Z,11.37
2018-03-11T18:39:16.866Z,7.80
2018-03-11T18:41:44.386Z,9.40
2018-03-11T18:44:11.875Z,9.37
2018-03-11T18:46:39.370Z,9.27
2018-03-11T18:49:07.647Z,11.27
2018-03-11T18:51:36.409Z,12.53
2018-03-11T18:54:03.887Z,12.20
2018-03-11T18:56:32.130Z,13.70
2018-03-11T18:58:59.622Z,12.50
2018-03-11T19:01:27.139Z,11.07
2018-03-11T19:03:54.639Z,9.50
2018-03-11T19:06:22.959Z,8.50
2018-03-11T19:08:51.287Z,8.77
2018-03-11T19:11:18.802Z,7.63
2018-03-11T19:13:46.291Z,7.90
2018-03-11T19:16:13.946Z,7.73
2018-03-11T19:18:41.440Z,8.07
2018-03-11T19:21:09.683Z,7.73
2018-03-11T19:23:37.208Z,9.40
2018-03-11T19:26:04.698Z,11.40
2018-03-11T19:28:32.205Z,11.13
2018-03-11T19:30:59.696Z,14.13
2018-03-11T19:33:27.217Z,11.60
2018-03-11T19:35:54.750Z,10.53
2018-03-11T19:38:22.274Z,9.77
2018-03-11T19:40:49.759Z,9.70
2018-03-11T19:43:17.274Z,10.90
2018-03-11T19:45:46.125Z,9.60
2018-03-11T19:48:14.422Z,9.77
2018-03-11T19:50:41.926Z,10.67
2018-03-11T19:53:09.458Z,11.97
2018-03-11T19:55:36.960Z,10.67
2018-03-11T19:58:04.470Z,22.13
2018-03-11T20:00:31.966Z,13.43
2018-03-11T20:03:00.250Z,16.40
2018-03-11T20:05:27.729Z,12.27
2018-03-11T20:07:55.990Z,12.33
2018-03-11T20:10:23.507Z,11.00
2018-03-11T20:12:51.012Z,13.03
2018-03-11T20:15:18.537Z,16.17
2018-03-11T20:17:46.061Z,18.40
2018-03-11T20:20:13.562Z,17.43
2018-03-11T20:22:41.076Z,16.73
2018-03-11T20:25:08.589Z,18.13
2018-03-11T20:27:36.866Z,14.40
2018-03-11T20:30:05.149Z,13.37
2018-03-11T20:32:33.457Z,13.20
2018-03-11T20:35:00.979Z,13.80
2018-03-11T20:37:29.242Z,13.10
2018-03-11T20:40:01.235Z,17.10
2018-03-11T20:42:28.742Z,15.20
2018-03-11T20:44:56.258Z,13.77
2018-03-11T20:47:24.767Z,14.17
2018-03-11T20:49:53.008Z,15.97
2018-03-11T20:52:21.265Z,14.97
2018-03-11T20:54:48.789Z,15.50
2018-03-11T20:57:17.267Z,16.10
2018-03-11T20:59:44.766Z,18.90
2018-03-11T21:02:12.273Z,24.00
2018-03-11T21:04:51.422Z,19.17
2018-03-11T21:07:18.941Z,19.20
2018-03-11T21:09:46.431Z,27.40
2018-03-11T21:12:13.955Z,22.33
2018-03-11T21:14:41.459Z,19.43
2018-03-11T21:17:08.975Z,17.77
2018-03-11T21:19:37.423Z,16.20
2018-03-11T21:22:04.947Z,15.53
2018-03-11T21:24:32.482Z,15.80
2018-03-11T21:27:00.031Z,12.93
2018-03-11T21:29:27.552Z,15.27
2018-03-11T21:31:55.075Z,14.70
2018-03-11T21:34:29.525Z,13.67
2018-03-11T21:36:57.446Z,16.33
2018-03-11T21:39:24.938Z,21.23
2018-03-11T21:41:55.683Z,28.30
2018-03-11T21:44:23.165Z,22.83
2018-03-11T21:46:51.451Z,24.73
2018-03-11T21:49:18.934Z,29.73
2018-03-11T21:51:46.442Z,22.93
2018-03-11T21:54:13.930Z,20.57
2018-03-11T21:56:41.441Z,20.17
2018-03-11T21:59:08.955Z,19.93
2018-03-11T22:01:36.457Z,19.67
2018-03-11T22:04:03.959Z,21.43
2018-03-11T22:06:31.499Z,21.93
2018-03-11T22:09:10.664Z,24.30
2018-03-11T22:11:38.178Z,25.87
2018-03-11T22:14:05.690Z,16.67
2018-03-11T22:16:33.182Z,14.27
2018-03-11T22:19:00.802Z,13.97
2018-03-11T22:21:28.306Z,12.37
2018-03-11T22:23:55.822Z,14.37
2018-03-11T22:26:23.327Z,14.40
2018-03-11T22:28:51.662Z,14.33
2018-03-11T22:31:19.147Z,14.33
2018-03-11T22:33:46.687Z,14.00
2018-03-11T22:36:14.193Z,21.87
2018-03-11T22:38:42.475Z,23.23
2018-03-11T22:41:10.737Z,19.83
2018-03-11T22:43:38.262Z,18.87
2018-03-11T22:46:05.761Z,17.60
2018-03-11T22:48:34.047Z,20.43
2018-03-11T22:51:02.299Z,22.57
2018-03-11T22:53:29.805Z,27.77
2018-03-11T22:55:57.319Z,23.60
2018-03-11T22:58:24.814Z,26.70
2018-03-11T23:00:52.317Z,25.10
2018-03-11T23:03:19.817Z,36.37
2018-03-11T23:05:47.313Z,29.00
2018-03-11T23:08:14.829Z,22.13
2018-03-11T23:10:43.111Z,21.60
2018-03-11T23:13:10.623Z,23.73
2018-03-11T23:15:38.147Z,23.63
2018-03-11T23:18:05.666Z,26.83
2018-03-11T23:20:33.938Z,28.67
2018-03-11T23:23:01.419Z,27.33
2018-03-11T23:25:28.927Z,24.00
2018-03-11T23:27:56.422Z,22.77
2018-03-11T23:30:24.726Z,25.10
2018-03-11T23:32:52.218Z,22.47
2018-03-11T23:35:19.738Z,27.63
2018-03-11T23:37:47.236Z,28.30
2018-03-11T23:40:14.738Z,27.73
2018-03-11T23:42:42.232Z,25.93
2018-03-11T23:45:09.750Z,28.73
2018-03-11T23:47:38.026Z,26.40
2018-03-11T23:50:06.306Z,24.17
2018-03-11T23:52:33.795Z,24.60
2018-03-11T23:55:01.306Z,24.80
2018-03-11T23:57:29.561Z,25.00
2018-03-11T23:59:57.066Z,22.53
